createdAt,value
2023-02-17T00:01:31.614Z,46.00
2023-02-17T00:03:59.502Z,47.55
2023-02-17T00:06:29.476Z,44.92
2023-02-17T00:08:56.923Z,45.30
2023-02-17T00:11:24.817Z,46.97
2023-02-17T00:13:55.201Z,45.95
2023-02-17T00:16:26.004Z,44.92
2023-02-17T00:19:02.497Z,46.53
2023-02-17T00:21:32.086Z,45.38
2023-02-17T00:24:00.206Z,44.75
2023-02-17T00:26:27.942Z,47.92
2023-02-17T00:28:55.193Z,45.20
2023-02-17T00:31:24.155Z,42.42
2023-02-17T00:33:55.819Z,45.13
2023-02-17T00:36:25.247Z,42.35
2023-02-17T00:38:55.253Z,42.30
2023-02-17T00:41:23.610Z,42.78
2023-02-17T00:43:50.945Z,42.58
2023-02-17T00:46:18.673Z,41.38
2023-02-17T00:48:47.004Z,41.60
2023-02-17T00:51:16.626Z,43.13
2023-02-17T00:53:44.669Z,40.60
2023-02-17T00:56:12.960Z,41.05
2023-02-17T00:58:41.625Z,39.55
2023-02-17T01:01:10.635Z,36.67
2023-02-17T01:03:42.283Z,36.70
2023-02-17T01:06:15.498Z,37.63
2023-02-17T01:08:42.733Z,35.33
2023-02-17T01:11:18.071Z,35.42
2023-02-17T01:13:45.372Z,36.00
2023-02-17T01:16:25.307Z,34.38
2023-02-17T01:18:52.962Z,34.00
2023-02-17T01:21:26.318Z,32.38
2023-02-17T01:23:56.226Z,33.38
2023-02-17T01:26:26.491Z,31.90
2023-02-17T01:28:54.661Z,32.03
2023-02-17T01:31:23.105Z,31.67
2023-02-17T01:33:50.387Z,30.80
2023-02-17T01:36:19.467Z,31.13
2023-02-17T01:38:46.817Z,32.75
2023-02-17T01:41:15.838Z,30.88
2023-02-17T01:43:43.705Z,29.55
2023-02-17T01:46:11.238Z,31.63
2023-02-17T01:48:39.170Z,30.63
2023-02-17T01:51:15.394Z,30.15
2023-02-17T01:53:55.407Z,29.35
2023-02-17T01:56:24.972Z,29.50
2023-02-17T01:58:59.993Z,31.58
2023-02-17T02:01:30.144Z,29.95
2023-02-17T02:04:00.616Z,29.35
2023-02-17T02:06:29.877Z,29.25
2023-02-17T02:09:15.596Z,28.40
2023-02-17T02:11:43.147Z,27.95
2023-02-17T02:14:11.475Z,27.52
2023-02-17T02:17:03.649Z,28.05
2023-02-17T02:19:49.626Z,28.25
2023-02-17T02:22:54.739Z,28.80
2023-02-17T02:25:43.268Z,28.50
2023-02-17T02:28:38.794Z,28.05
2023-02-17T02:31:27.505Z,27.63
2023-02-17T02:34:06.743Z,27.42
2023-02-17T02:36:58.862Z,28.38
2023-02-17T02:39:34.502Z,25.92
2023-02-17T02:42:09.243Z,26.95
2023-02-17T02:44:37.130Z,27.75
2023-02-17T02:47:42.354Z,26.55
2023-02-17T02:50:14.668Z,27.63
2023-02-17T02:53:17.348Z,27.23
2023-02-17T02:55:47.935Z,25.92
2023-02-17T02:58:24.423Z,27.23
2023-02-17T03:01:05.161Z,26.13
2023-02-17T03:03:49.107Z,24.50
2023-02-17T03:06:29.566Z,25.48
2023-02-17T03:09:05.636Z,25.88
2023-02-17T03:11:33.412Z,25.10
2023-02-17T03:14:10.065Z,24.88
2023-02-17T03:16:39.032Z,25.58
2023-02-17T03:19:06.893Z,24.15
2023-02-17T03:21:39.256Z,24.75
2023-02-17T03:24:07.238Z,25.02
2023-02-17T03:26:34.867Z,24.65
2023-02-17T03:29:02.212Z,24.70
2023-02-17T03:31:31.001Z,25.58
2023-02-17T03:33:59.646Z,25.88
2023-02-17T03:36:27.478Z,26.63
2023-02-17T03:38:54.690Z,26.50
2023-02-17T03:41:22.520Z,25.25
2023-02-17T03:43:50.206Z,25.90
2023-02-17T03:46:18.634Z,24.55
2023-02-17T03:48:45.929Z,25.33
2023-02-17T03:51:15.660Z,25.60
2023-02-17T03:53:43.880Z,25.45
2023-02-17T03:56:12.358Z,25.60
2023-02-17T03:58:40.791Z,26.13
2023-02-17T04:01:10.561Z,25.27
2023-02-17T04:03:38.881Z,24.02
2023-02-17T04:06:07.487Z,24.92
2023-02-17T04:08:35.262Z,24.50
2023-02-17T04:11:04.325Z,25.05
2023-02-17T04:13:32.113Z,24.70
2023-02-17T04:16:01.535Z,24.98
2023-02-17T04:18:28.847Z,24.27
2023-02-17T04:20:56.432Z,24.73
2023-02-17T04:23:24.073Z,23.83
2023-02-17T04:25:51.667Z,23.35
2023-02-17T04:28:19.057Z,26.48
2023-02-17T04:30:48.436Z,25.92
2023-02-17T04:33:16.533Z,25.88
2023-02-17T04:35:44.107Z,25.35
2023-02-17T04:38:12.336Z,25.25
2023-02-17T04:40:39.915Z,26.20
2023-02-17T04:43:08.559Z,26.05
2023-02-17T04:45:37.578Z,26.73
2023-02-17T04:48:04.861Z,27.13
2023-02-17T04:50:32.483Z,25.92
2023-02-17T04:52:59.797Z,26.48
2023-02-17T04:55:27.461Z,25.80
2023-02-17T04:57:54.717Z,26.42
2023-02-17T05:00:22.451Z,25.73
2023-02-17T05:02:49.659Z,25.40
2023-02-17T05:05:18.955Z,25.23
2023-02-17T05:07:46.967Z,23.63
2023-02-17T05:10:15.627Z,25.70
2023-02-17T05:12:43.398Z,26.55
2023-02-17T05:15:12.315Z,25.92
2023-02-17T05:17:39.672Z,23.80
2023-02-17T05:20:08.157Z,24.25
2023-02-17T05:22:35.835Z,25.83
2023-02-17T05:25:03.702Z,26.23
2023-02-17T05:27:31.381Z,25.90
2023-02-17T05:29:58.991Z,28.25
2023-02-17T05:32:26.298Z,25.55
2023-02-17T05:34:54.033Z,26.02
2023-02-17T05:37:21.378Z,27.13
2023-02-17T05:39:48.928Z,26.63
2023-02-17T05:42:16.199Z,26.15
2023-02-17T05:44:43.843Z,27.40
2023-02-17T05:47:11.143Z,26.45
2023-02-17T05:49:38.660Z,27.27
2023-02-17T05:52:05.965Z,25.08
2023-02-17T05:54:33.504Z,25.50
2023-02-17T05:57:00.737Z,24.75
2023-02-17T05:59:28.488Z,26.33
2023-02-17T06:01:55.925Z,25.65
2023-02-17T06:04:23.576Z,29.55
2023-02-17T06:06:51.056Z,27.23
2023-02-17T06:09:18.642Z,28.70
2023-02-17T06:11:45.855Z,27.65
2023-02-17T06:14:13.373Z,27.45
2023-02-17T06:16:40.599Z,25.40
2023-02-17T06:19:08.141Z,26.30
2023-02-17T06:21:35.425Z,28.48
2023-02-17T06:24:03.089Z,28.70
2023-02-17T06:26:30.283Z,26.80
2023-02-17T06:28:57.846Z,27.58
2023-02-17T06:31:25.292Z,28.38
2023-02-17T06:33:53.310Z,28.77
2023-02-17T06:36:20.538Z,28.73
2023-02-17T06:38:48.083Z,26.90
2023-02-17T06:41:15.336Z,28.10
2023-02-17T06:43:42.891Z,26.88
2023-02-17T06:46:10.472Z,25.27
2023-02-17T06:48:38.093Z,24.00
2023-02-17T06:51:05.529Z,22.77
2023-02-17T06:53:33.106Z,21.90
2023-02-17T06:56:00.337Z,24.13
2023-02-17T06:58:27.952Z,24.05
2023-02-17T07:00:55.187Z,23.25
2023-02-17T07:03:22.745Z,24.30
2023-02-17T07:05:50.028Z,21.85
2023-02-17T07:08:17.681Z,20.88
2023-02-17T07:10:44.911Z,19.00
2023-02-17T07:13:12.416Z,24.00
2023-02-17T07:15:39.642Z,23.27
2023-02-17T07:18:07.443Z,22.67
2023-02-17T07:20:34.736Z,23.58
2023-02-17T07:23:02.368Z,21.00
2023-02-17T07:25:29.898Z,21.65
2023-02-17T07:27:57.479Z,18.75
2023-02-17T07:30:24.747Z,17.42
2023-02-17T07:32:52.278Z,16.70
2023-02-17T07:35:19.495Z,18.33
2023-02-17T07:37:47.081Z,16.10
2023-02-17T07:40:14.396Z,16.50
2023-02-17T07:42:41.961Z,15.30
2023-02-17T07:45:09.431Z,14.45
2023-02-17T07:47:37.076Z,14.88
2023-02-17T07:50:04.964Z,12.68
2023-02-17T07:52:32.534Z,14.50
2023-02-17T07:54:59.882Z,13.48
2023-02-17T07:57:27.656Z,15.15
2023-02-17T07:59:54.872Z,15.93
2023-02-17T08:02:22.780Z,15.00
2023-02-17T08:04:51.866Z,15.95
2023-02-17T08:07:19.476Z,15.88
2023-02-17T08:10:05.998Z,16.92
2023-02-17T08:13:09.073Z,14.85
2023-02-17T08:15:36.337Z,16.08
2023-02-17T08:18:05.086Z,16.88
2023-02-17T08:20:34.281Z,15.77
2023-02-17T08:23:03.754Z,16.65
2023-02-17T08:25:35.479Z,17.23
2023-02-17T08:28:05.732Z,17.20
2023-02-17T08:30:36.628Z,18.63
2023-02-17T08:33:05.654Z,17.55
2023-02-17T08:35:33.206Z,16.27
2023-02-17T08:38:00.740Z,17.65
2023-02-17T08:40:29.181Z,16.90
2023-02-17T08:42:56.764Z,16.50
2023-02-17T08:45:24.158Z,17.40
2023-02-17T08:47:51.768Z,17.73
2023-02-17T08:50:20.276Z,17.27
2023-02-17T08:52:47.893Z,16.90
2023-02-17T08:55:15.354Z,18.38
2023-02-17T08:57:42.956Z,17.90
2023-02-17T09:00:11.093Z,18.60
2023-02-17T09:02:38.756Z,19.23
2023-02-17T09:05:06.350Z,20.75
2023-02-17T09:07:33.905Z,19.92
2023-02-17T09:10:01.402Z,19.88
2023-02-17T09:12:29.072Z,19.90
2023-02-17T09:14:56.293Z,21.40
2023-02-17T09:17:24.352Z,21.00
2023-02-17T09:19:51.871Z,22.65
2023-02-17T09:22:31.715Z,22.65
2023-02-17T09:24:59.771Z,21.88
2023-02-17T09:27:27.309Z,24.20
2023-02-17T09:29:54.637Z,22.98
2023-02-17T09:32:22.560Z,24.23
2023-02-17T09:34:55.776Z,23.73
2023-02-17T09:37:24.799Z,22.73
2023-02-17T09:39:52.244Z,23.45
2023-02-17T09:42:23.219Z,23.58
2023-02-17T09:44:57.028Z,23.10
2023-02-17T09:47:32.364Z,23.17
2023-02-17T09:50:05.913Z,23.70
2023-02-17T09:52:36.582Z,24.42
2023-02-17T09:55:27.973Z,22.70
2023-02-17T09:58:04.274Z,22.20
2023-02-17T10:00:40.521Z,22.33
2023-02-17T10:03:13.228Z,23.33
2023-02-17T10:05:47.379Z,22.83
2023-02-17T10:08:23.416Z,22.45
2023-02-17T10:11:08.686Z,24.05
2023-02-17T10:13:37.789Z,23.95
2023-02-17T10:16:10.309Z,23.48
2023-02-17T10:18:47.663Z,22.80
2023-02-17T10:21:24.173Z,23.83
2023-02-17T10:23:51.979Z,24.02
2023-02-17T10:26:48.887Z,24.05
2023-02-17T10:30:07.044Z,25.15
2023-02-17T10:32:50.796Z,23.80
2023-02-17T10:35:27.540Z,23.20
2023-02-17T10:38:16.443Z,24.25
2023-02-17T10:40:47.535Z,23.52
2023-02-17T10:43:22.836Z,24.73
2023-02-17T10:45:51.453Z,24.88
2023-02-17T10:48:22.629Z,23.10
2023-02-17T10:50:50.890Z,23.23
2023-02-17T10:53:21.499Z,24.10
2023-02-17T10:56:07.526Z,22.98
2023-02-17T10:58:50.049Z,20.98
2023-02-17T11:01:18.002Z,21.33
2023-02-17T11:03:45.401Z,18.17
2023-02-17T11:06:23.492Z,20.27
2023-02-17T11:08:54.334Z,20.05
2023-02-17T11:11:30.664Z,19.27
2023-02-17T11:14:07.029Z,19.08
2023-02-17T11:16:41.726Z,19.27
2023-02-17T11:19:28.461Z,19.20
2023-02-17T11:21:58.824Z,19.52
2023-02-17T11:24:27.979Z,17.50
2023-02-17T11:27:05.418Z,18.98
2023-02-17T11:29:34.197Z,19.73
2023-02-17T11:32:09.122Z,17.73
2023-02-17T11:34:40.036Z,18.45
2023-02-17T11:37:13.292Z,18.95
2023-02-17T11:39:46.652Z,17.95
2023-02-17T11:42:24.697Z,18.65
2023-02-17T11:44:54.899Z,18.48
2023-02-17T11:47:51.625Z,19.83
2023-02-17T11:50:43.941Z,19.35
2023-02-17T11:53:27.179Z,18.92
2023-02-17T11:56:08.382Z,19.20
2023-02-17T11:58:42.095Z,19.88
2023-02-17T12:01:34.531Z,17.92
2023-02-17T12:04:21.538Z,18.08
2023-02-17T12:07:26.824Z,16.60
2023-02-17T12:10:15.531Z,17.00
2023-02-17T12:12:48.763Z,15.30
2023-02-17T12:15:34.673Z,15.23
2023-02-17T12:18:24.771Z,16.13
2023-02-17T12:21:10.883Z,14.52
2023-02-17T12:23:57.435Z,15.13
2023-02-17T12:26:36.923Z,13.52
2023-02-17T12:29:28.610Z,14.50
2023-02-17T12:32:19.098Z,13.75
2023-02-17T12:34:59.567Z,14.15
2023-02-17T12:37:33.631Z,12.73
2023-02-17T12:40:15.653Z,12.80
2023-02-17T12:42:53.804Z,12.95
2023-02-17T12:45:24.787Z,13.35
2023-02-17T12:47:55.645Z,11.60
2023-02-17T12:50:35.148Z,11.73
2023-02-17T12:53:08.767Z,11.15
2023-02-17T12:55:49.009Z,11.60
2023-02-17T12:58:20.274Z,10.50
2023-02-17T13:00:52.755Z,9.07
2023-02-17T13:03:20.642Z,9.75
2023-02-17T13:05:52.285Z,8.88
2023-02-17T13:11:11.163Z,8.73
2023-02-17T13:13:39.182Z,9.30
2023-02-17T13:16:14.958Z,8.68
2023-02-17T13:18:50.388Z,8.23
2023-02-17T13:21:24.975Z,8.98
2023-02-17T13:24:12.960Z,8.80
2023-02-17T13:26:44.658Z,7.95
2023-02-17T13:29:24.313Z,9.30
2023-02-17T13:32:02.379Z,8.52
2023-02-17T13:34:39.469Z,8.23
2023-02-17T13:37:33.124Z,8.60
2023-02-17T13:40:03.205Z,7.97
2023-02-17T13:42:34.904Z,7.57
2023-02-17T13:47:41.186Z,9.00
2023-02-17T13:50:37.097Z,8.80
2023-02-17T13:53:28.688Z,7.90
2023-02-17T13:56:00.483Z,7.63
2023-02-17T13:58:33.055Z,8.63
2023-02-17T14:01:02.434Z,8.32
2023-02-17T14:03:46.792Z,8.00
2023-02-17T14:06:23.633Z,7.75
2023-02-17T14:08:51.148Z,7.03
2023-02-17T14:11:21.554Z,7.43
2023-02-17T14:13:51.258Z,6.10
2023-02-17T14:16:33.111Z,6.85
2023-02-17T14:19:10.269Z,5.90
2023-02-17T14:21:40.430Z,5.53
2023-02-17T14:24:10.274Z,5.40
2023-02-17T14:26:42.429Z,5.32
2023-02-17T14:29:12.812Z,5.15
2023-02-17T14:31:44.078Z,5.18
2023-02-17T14:34:32.656Z,4.78
2023-02-17T14:37:23.223Z,4.75
2023-02-17T14:39:50.922Z,4.10
2023-02-17T14:42:18.601Z,3.92
2023-02-17T14:44:45.850Z,3.83
2023-02-17T14:47:13.395Z,3.40
2023-02-17T14:49:40.638Z,3.35
2023-02-17T14:52:20.552Z,4.00
2023-02-17T14:54:49.039Z,3.50
2023-02-17T14:57:17.744Z,3.30
2023-02-17T14:59:45.012Z,3.45
2023-02-17T15:02:18.040Z,3.20
2023-02-17T15:04:45.652Z,3.45
2023-02-17T15:07:16.300Z,3.10
2023-02-17T15:09:48.173Z,2.60
2023-02-17T15:12:21.185Z,2.40
2023-02-17T15:14:48.650Z,2.60
2023-02-17T15:17:16.577Z,2.60
2023-02-17T15:19:46.586Z,2.10
2023-02-17T15:22:14.503Z,2.38
2023-02-17T15:24:42.118Z,2.30
2023-02-17T15:27:15.178Z,1.98
2023-02-17T15:29:42.468Z,1.77
2023-02-17T15:32:20.982Z,1.70
2023-02-17T15:34:48.432Z,1.77
2023-02-17T15:37:15.979Z,2.00
2023-02-17T15:39:43.213Z,1.90
2023-02-17T15:42:13.838Z,1.48
2023-02-17T15:44:50.388Z,2.20
2023-02-17T15:47:20.707Z,2.20
2023-02-17T15:49:48.095Z,1.88
2023-02-17T15:52:16.122Z,2.00
2023-02-17T15:54:44.466Z,1.50
2023-02-17T15:57:24.033Z,2.30
2023-02-17T15:59:55.062Z,1.70
2023-02-17T16:02:25.211Z,1.42
2023-02-17T16:04:52.494Z,2.10
2023-02-17T16:07:19.999Z,1.73
2023-02-17T16:09:47.292Z,1.50
2023-02-17T16:12:19.024Z,1.17
2023-02-17T16:14:46.400Z,1.65
2023-02-17T16:17:16.710Z,1.70
2023-02-17T16:19:44.441Z,1.75
2023-02-17T16:22:12.266Z,1.60
2023-02-17T16:24:39.506Z,1.45
2023-02-17T16:27:09.627Z,1.80
2023-02-17T16:29:36.942Z,1.45
2023-02-17T16:32:04.740Z,1.20
2023-02-17T16:34:34.847Z,1.88
2023-02-17T16:37:10.057Z,1.30
2023-02-17T16:39:39.432Z,1.77
2023-02-17T16:42:07.072Z,1.52
2023-02-17T16:44:34.955Z,1.20
2023-02-17T16:47:02.872Z,1.58
2023-02-17T16:49:33.816Z,1.70
2023-02-17T16:52:07.761Z,1.20
2023-02-17T16:54:35.826Z,1.73
2023-02-17T16:57:03.864Z,1.88
2023-02-17T16:59:31.202Z,1.38
2023-02-17T17:01:58.932Z,1.98
2023-02-17T17:04:26.197Z,1.92
2023-02-17T17:06:53.754Z,2.05
2023-02-17T17:09:23.854Z,2.00
2023-02-17T17:11:51.401Z,1.60
2023-02-17T17:14:21.425Z,1.80
2023-02-17T17:16:57.479Z,1.52
2023-02-17T17:19:25.446Z,1.58
2023-02-17T17:21:52.983Z,1.77
2023-02-17T17:24:20.474Z,1.20
2023-02-17T17:26:50.284Z,1.30
2023-02-17T17:29:19.274Z,1.50
2023-02-17T17:31:47.560Z,1.45
2023-02-17T17:34:14.989Z,1.38
2023-02-17T17:36:45.290Z,1.25
2023-02-17T17:39:19.089Z,1.17
2023-02-17T17:41:47.446Z,1.80
2023-02-17T17:44:15.183Z,2.00
2023-02-17T17:46:43.386Z,2.08
2023-02-17T17:49:13.813Z,6.05
2023-02-17T17:51:41.867Z,1.85
2023-02-17T17:54:09.234Z,1.65
2023-02-17T17:56:39.973Z,1.90
2023-02-17T17:59:07.218Z,1.45
2023-02-17T18:01:35.140Z,1.55
2023-02-17T18:04:02.850Z,1.45
2023-02-17T18:06:37.474Z,1.30
2023-02-17T18:09:07.771Z,1.42
2023-02-17T18:11:37.053Z,1.40
2023-02-17T18:14:08.800Z,1.75
2023-02-17T18:16:38.637Z,1.88
2023-02-17T18:19:08.108Z,1.63
2023-02-17T18:21:36.090Z,2.05
2023-02-17T18:24:03.684Z,1.70
2023-02-17T18:26:31.648Z,1.58
2023-02-17T18:28:59.345Z,1.40
2023-02-17T18:31:29.492Z,1.70
2023-02-17T18:33:56.935Z,2.05
2023-02-17T18:36:27.186Z,1.52
2023-02-17T18:38:54.637Z,1.60
2023-02-17T18:41:27.878Z,2.28
2023-02-17T18:43:56.718Z,2.20
2023-02-17T18:46:26.766Z,1.30
2023-02-17T18:48:57.557Z,1.63
2023-02-17T18:51:27.635Z,1.08
2023-02-17T18:53:56.825Z,1.73
2023-02-17T18:56:27.787Z,1.88
2023-02-17T18:58:55.798Z,1.70
2023-02-17T19:01:27.174Z,1.38
2023-02-17T19:03:55.631Z,1.58
2023-02-17T19:06:26.665Z,1.52
2023-02-17T19:08:54.389Z,1.73
2023-02-17T19:11:23.290Z,1.67
2023-02-17T19:13:51.301Z,1.73
2023-02-17T19:16:25.040Z,2.25
2023-02-17T19:18:52.963Z,1.55
2023-02-17T19:21:21.527Z,1.48
2023-02-17T19:23:50.241Z,2.45
2023-02-17T19:26:18.685Z,1.75
2023-02-17T19:28:46.716Z,1.92
2023-02-17T19:31:18.047Z,1.75
2023-02-17T19:33:45.855Z,2.53
2023-02-17T19:36:19.303Z,1.92
2023-02-17T19:38:47.760Z,1.35
2023-02-17T19:41:16.906Z,2.65
2023-02-17T19:43:45.147Z,1.83
2023-02-17T19:46:14.515Z,1.83
2023-02-17T19:48:42.213Z,1.90
2023-02-17T19:51:13.800Z,2.17
2023-02-17T19:53:45.714Z,1.63
2023-02-17T19:56:19.125Z,2.95
2023-02-17T19:58:47.387Z,3.88
2023-02-17T20:01:18.193Z,4.40
2023-02-17T20:03:45.937Z,2.05
2023-02-17T20:06:32.252Z,2.40
2023-02-17T20:09:02.074Z,2.80
2023-02-17T20:11:31.981Z,2.33
2023-02-17T20:14:01.241Z,2.67
2023-02-17T20:16:29.766Z,2.40
2023-02-17T20:18:57.424Z,2.65
2023-02-17T20:21:28.243Z,2.90
2023-02-17T20:23:57.374Z,2.50
2023-02-17T20:26:28.318Z,3.05
2023-02-17T20:28:56.549Z,2.47
2023-02-17T20:31:24.595Z,2.72
2023-02-17T20:33:52.443Z,2.45
2023-02-17T20:36:22.248Z,2.90
2023-02-17T20:38:50.233Z,3.28
2023-02-17T20:41:21.218Z,3.80
2023-02-17T20:43:49.277Z,6.95
2023-02-17T20:46:26.260Z,2.50
2023-02-17T20:48:54.435Z,2.63
2023-02-17T20:51:22.455Z,2.13
2023-02-17T20:53:49.889Z,1.50
2023-02-17T20:56:20.634Z,1.77
2023-02-17T20:58:48.833Z,3.03
2023-02-17T21:01:16.604Z,2.28
2023-02-17T21:03:44.024Z,1.83
2023-02-17T21:06:20.607Z,2.50
2023-02-17T21:08:51.772Z,2.92
2023-02-17T21:11:19.540Z,2.45
2023-02-17T21:13:47.613Z,2.95
2023-02-17T21:16:18.037Z,2.15
2023-02-17T21:18:46.939Z,2.80
2023-02-17T21:21:15.575Z,2.10
2023-02-17T21:23:42.969Z,1.70
2023-02-17T21:26:12.886Z,2.40
2023-02-17T21:28:40.885Z,1.65
2023-02-17T21:31:08.732Z,2.38
2023-02-17T21:33:41.859Z,1.65
2023-02-17T21:36:11.334Z,1.92
2023-02-17T21:38:39.010Z,2.63
2023-02-17T21:41:18.840Z,2.38
2023-02-17T21:44:05.606Z,2.10
2023-02-17T21:46:34.334Z,2.10
2023-02-17T21:49:02.034Z,1.88
2023-02-17T21:51:30.839Z,2.00
2023-02-17T21:53:59.397Z,2.50
2023-02-17T21:56:27.292Z,2.58
2023-02-17T21:58:55.565Z,2.30
2023-02-17T22:01:25.111Z,2.40
2023-02-17T22:03:52.816Z,2.75
2023-02-17T22:06:38.817Z,2.50
2023-02-17T22:09:08.675Z,1.90
2023-02-17T22:11:38.880Z,1.90
2023-02-17T22:14:10.164Z,2.08
2023-02-17T22:16:38.353Z,2.30
2023-02-17T22:19:07.602Z,5.90
2023-02-17T22:21:35.270Z,4.25
2023-02-17T22:24:02.835Z,26.48
2023-02-17T22:26:30.800Z,3.38
2023-02-17T22:28:58.284Z,1.98
2023-02-17T22:31:28.615Z,2.03
2023-02-17T22:33:57.846Z,2.38
2023-02-17T22:36:27.500Z,1.95
2023-02-17T22:38:55.058Z,2.17
2023-02-17T22:41:24.785Z,1.90
2023-02-17T22:43:54.109Z,2.40
2023-02-17T22:46:25.005Z,1.92
2023-02-17T22:48:53.024Z,2.60
2023-02-17T22:51:24.109Z,2.88
2023-02-17T22:53:51.958Z,2.22
2023-02-17T22:56:19.725Z,2.35
2023-02-17T22:58:47.033Z,2.03
2023-02-17T23:01:20.737Z,2.50
2023-02-17T23:03:52.970Z,1.92
2023-02-17T23:06:27.640Z,2.88
2023-02-17T23:08:55.623Z,2.08
2023-02-17T23:11:44.895Z,2.97
2023-02-17T23:14:14.236Z,2.15
2023-02-17T23:16:42.237Z,2.22
2023-02-17T23:19:12.261Z,2.80
2023-02-17T23:21:46.112Z,2.70
2023-02-17T23:24:15.274Z,2.17
2023-02-17T23:26:43.054Z,2.00
2023-02-17T23:29:11.302Z,2.67
2023-02-17T23:31:39.257Z,12.88
2023-02-17T23:34:07.464Z,2.60
2023-02-17T23:36:35.047Z,3.05
2023-02-17T23:39:02.608Z,2.72
2023-02-17T23:41:30.325Z,2.45
2023-02-17T23:43:57.721Z,2.58
2023-02-17T23:46:25.423Z,1.88
2023-02-17T23:48:52.800Z,2.83
2023-02-17T23:51:20.303Z,2.38
2023-02-17T23:53:47.639Z,3.33
2023-02-17T23:56:23.462Z,5.78
2023-02-17T23:58:51.058Z,2.10
